To NAV CANADA Home Page Login to a new session Search on AWWS site Disclaimer Vers la page française équivalente Tips FAQ What's new on the site To the Forecasts and Observations / NOTAM section To "File a Flight Plan" website Publications and other links Update of the User's profile FIC Telephone Numbers My Weather Data Folder Route Weather Data Regional Weather Data Local Weather Data To the Forecasts and Observations / NOTAM section
Request Generated 05/28/2022 at 05:08:41 UTC . Weather information available at that time is displayed.


Save this request - Inactive

METAR/TAF

BRAMPTON-CALEDON/ON    

CYBM - METAR not available

CYBM - No TAF is issued for this station

HAMILTON/ON    

METAR CYHM 280500Z 23004KT 15SM FEW023 SCT065 BKN100 OVC250 15/14 A2972 RMK SC2SC2AC2CI2 SLP066 DENSITY ALT 1300FT=
METAR CYHM 280400Z 31005KT 15SM FEW030 BKN100 BKN200 16/14 A2973 RMK SC1AC4CI2 SLP067 DENSITY ALT 1300FT=
METAR CYHM 280300Z 21003KT 15SM BKN028 BKN044 OVC250 16/14 A2973 RMK SC5SC1CI2 SLP068 DENSITY ALT 1300FT=

TAF AMD CYHM 280210Z 2802/2824 26005KT P6SM SCT030 TEMPO 2802/2809
BKN020 PROB30 2803/2809 5SM BR BKN004 OVC015
FM280900 33005KT P6SM FEW008 SCT030 PROB30 2809/2813 BKN008
BKN030
FM281300 33008KT P6SM SCT030
RMK NXT FCST BY 280600Z=

KITCHENER/WATERLOO/ON    (show WxCam)

METAR CYKF 280500Z AUTO 31008KT 9SM FEW009 OVC018 13/13 A2975 RMK SLP074 DENSITY ALT 1300FT=
SPECI CYKF 280450Z AUTO 30008KT 9SM SCT009 OVC018 13/13 A2974 RMK SLP075 DENSITY ALT 1300FT=
METAR CYKF 280400Z AUTO 30010KT 9SM BKN007 OVC055 15/15 A2974 RMK SLP071 DENSITY ALT 1500FT=
SPECI CYKF 280352Z AUTO 31006KT 8SM BKN007 BKN019 OVC055 15/15 A2974 RMK SLP072 DENSITY ALT 1500FT=
SPECI CYKF 280343Z AUTO 31004KT 9SM SCT019 OVC055 14/14 A2974 RMK SLP073 DENSITY ALT 1500FT=
SPECI CYKF 280315Z AUTO 31004KT 9SM SCT006 OVC019 15/15 A2974 RMK SLP074 DENSITY ALT 1500FT=
SPECI CYKF 280303Z AUTO 32004KT 9SM BKN006 OVC019 15/15 A2974 RMK SLP073 DENSITY ALT 1500FT=
METAR CYKF 280300Z AUTO 31003KT 9SM BKN004 OVC019 15/15 A2974 RMK SLP071 DENSITY ALT 1500FT=

TAF AMD CYKF 280237Z 2802/2814 30007KT 5SM BR OVC004 TEMPO 2802/2806
P6SM NSW SCT004 OVC015
FM280600 30005KT P6SM SCT006 BKN040 TEMPO 2806/2812 5SM BR
BKN006 OVC020 PROB30 2806/2812 BKN005 OVC010
FM281200 32008KT P6SM BKN015 OVC040
RMK FCST BASED ON AUTO OBS. NXT FCST BY 280800Z=

ST. CATHARINES/NIAGARA DISTRICT/ON    

LWIS CYSN 280500Z AUTO 20003KT 190V260 15/14 A2971=
LWIS CYSN 280400Z AUTO 18006KT 16/14 A2971=
LWIS CYSN 280300Z AUTO 21007KT 16/15 A2971=

*** REMARK        : Forecast period has ended; this was the last TAF issued
*** REMARQUE : La période de prévision est échue; ceci était le dernier TAF qui a été émis
TAF CYSN 271940Z 2720/2801 22010KT P6SM SCT030 BKN120 TEMPO
2720/2801 BKN030 BKN120
RMK NXT FCST BY 281300Z

TORONTO/BILLY BISHOP TORONTO CITY AIRPORT/ON    (show WxCam)

METAR CYTZ 280500Z AUTO 28005G15KT 240V350 9SM BKN044 OVC071 17/ A2971 RMK DP MISG SLP062 DENSITY ALT 800FT=
SPECI CYTZ 280403Z AUTO 25005KT 220V340 9SM SCT021 BKN038 BKN071 OVC120 A2971 RMK T MISG DP MISG DENSITY ALT MISG=
METAR CYTZ 280400Z AUTO VRB05KT 9SM BKN021 BKN038 BKN055 OVC120 A2971 RMK T MISG DP MISG DENSITY ALT MISG=
SPECI CYTZ 280317Z AUTO 33009G16KT 260V350 9SM OVC011 A2971 RMK T MISG DP MISG DENSITY ALT MISG=
METAR CYTZ 280300Z AUTO 33006G15KT 260V360 9SM OVC009 A2970 RMK T MISG DP MISG DENSITY ALT MISG=

TAF CYTZ 280140Z 2802/2902 32005KT P6SM FEW020 BKN100 TEMPO
2802/2812 SCT008 BKN020 OVC100
FM281200 33012KT P6SM FEW015
FM281600 31015KT P6SM SCT040
BECMG 2822/2824 VRB03KT FEW040
RMK FCST BASED ON AUTO OBS. T SENSOR INOP. NXT FCST BY 280800Z=

TORONTO/LESTER B. PEARSON INTL/ON    

METAR CYYZ 280500Z VRB02KT 15SM BKN020 BKN030 15/15 A2972 RMK SC7SC1 SC TR SLP066 DENSITY ALT 1000FT=
METAR CYYZ 280400Z 34008KT 15SM SCT020 BKN080 OVC140 15/15 A2972 RMK SC3AC4AC1 SLP066 DENSITY ALT 1000FT=
SPECI CYYZ 280345Z 35005KT 15SM SCT020 OVC080 16/16 A2972 RMK SC3AC5 SLP065 DENSITY ALT 1000FT=
METAR CYYZ 280300Z 36007KT 15SM BKN017 16/15 A2972 RMK SC7 SLP065 DENSITY ALT 1100FT=

TAF CYYZ 280240Z 2803/2906 34010KT P6SM FEW030 BKN140 TEMPO
2803/2805 5SM -SHRA BR SCT008 OVC020
FM280500 34010KT P6SM SCT008 BKN030 PROB30 2805/2814 BKN008
BKN030
FM281400 35012KT P6SM SCT020
FM281600 35010KT P6SM FEW030
FM290000 01008KT P6SM SCT050
RMK NXT FCST BY 280600Z=

BORDEN/ON    

CYBN - METAR not available

*** REMARK        : Forecast period has ended; this was the last TAF issued
*** REMARQUE : La période de prévision est échue; ceci était le dernier TAF qui a été émis
TAF AMD CYBN 172207Z 1722/1810 CNL
RMK END OF FLY PROGRAM. NXT FCST BY 061000Z=

TORONTO/OSHAWA EXECUTIVE AIRPORT/ON    (show WxCam)

METAR CYOO 280500Z AUTO 32009KT 9SM BKN035 BKN100 BKN120 OVC160 15/13 A2970 RMK SLP059 DENSITY ALT 900FT=
METAR CYOO 280400Z AUTO 33008KT 9SM FEW042 SCT100 BKN130 16/15 A2970 RMK SLP059 DENSITY ALT 1000FT=
METAR CYOO 280300Z AUTO 33007KT 9SM FEW060 SCT130 BKN230 16/15 A2969 RMK SLP057 DENSITY ALT 1000FT=

TAF CYOO 280140Z 2802/2814 33007KT P6SM OVC060 TEMPO 2802/2804 5SM
-SHRA BR SCT008 OVC020
FM280400 32008KT P6SM SCT020 BKN080 TEMPO 2804/2814 SCT008
BKN020 OVC080 PROB30 2808/2812 5SM BR BKN006 OVC015
RMK FCST BASED ON AUTO OBS. NXT FCST BY 280800Z

PETERBOROUGH/ON    (show WxCam)

METAR CYPQ 280500Z AUTO /////KT RMK WIND MISG CLD MISG WX MISG VIS MISG PCPN MISG PRES MISG T MISG DP MISG ICE MISG DENSITY ALT MISG
=
METAR CYPQ 280400Z AUTO /////KT RMK WIND MISG CLD MISG WX MISG VIS MISG PCPN MISG PRES MISG T MISG DP MISG ICE MISG DENSITY ALT MISG
=
METAR CYPQ 280300Z AUTO /////KT RMK WIND MISG CLD MISG WX MISG VIS MISG PCPN MISG PRES MISG T MISG DP MISG ICE MISG DENSITY ALT MISG
=

TAF CYPQ 271943Z NIL
RMK SENSORS INOP. NXT FCST BY 281000Z=

TRENTON/ON    

METAR CYTR 280500Z 22003KT 15SM FEW002 BKN045 16/16 A2968 RMK SF2SC5 DENSITY ALT 973FT SLP052=
SPECI CYTR 280443Z 22004KT 15SM FEW003 BKN043 16/15 A2968 RMK SF1SC5 DENSITY ALT 934FT SLP052=
SPECI CYTR 280420Z 24004KT 5SM BR BKN003 BKN050 16/15 A2968 RMK SF6SC1 DENSITY ALT 948FT VIS VRB 3-7 SLP051=
METAR CYTR 280400Z 21005KT 3SM BR OVC002 16/15 A2968 RMK SF8 DENSITY ALT 934FT VIS VRB 2 1/4-4 SLP052=
SPECI CYTR 280354Z 21005KT 3SM BR OVC002 16/15 A2969 RMK SF8 DENSITY ALT 923FT VIS VRB 2 1/4-4 SLP053=
SPECI CYTR 280346Z 21006KT 5SM BR BKN002 OVC050 16/15 A2968 RMK SF6SC2 DENSITY ALT 948FT SLP053=
METAR CYTR 280300Z 18003KT 130V200 15SM FEW002 SCT050 BKN120 16/15 A2967 RMK SF1SC3AC2 DENSITY ALT 958FT SLP050=

TAF AMD CYTR 280449Z 2804/2824 VRB03KT P6SM SCT003 BKN040 TEMPO
2804/2808 4SM BR
FM280800 32005KT P6SM SCT020 BKN040 TEMPO 2808/2812 BKN020
OVC040
FM281200 35010KT P6SM SCT040 BKN060
BECMG 2818/2820 22006KT
FM282000 22006KT P6SM SKC
RMK NXT FCST BY 280600Z=

KINGSTON/ON    

LWIS CYGK 280500Z AUTO 16004KT 120V180 13/13 A2968=
LWIS CYGK 280400Z AUTO 22005KT 14/13 A2969=
METAR CYGK 280300Z CCA 21005KT 3SM BR FEW002 BKN100 OVC200 14/13 A2968 RMK SF2AC5CI1 LAST STFD OBS / NXT 281000Z SLP054 DENSITY ALT
500FT=
METAR CYGK 280300Z 21005KT 3/8SM BR FEW002 BKN100 OVC200 14/13 A2968 RMK SF2AC5CI1 LAST STFD OBS / NXT 281000Z SLP054 DENSITY ALT 50
0FT=

*** REMARK        : Forecast period has ended; this was the last TAF issued
*** REMARQUE : La période de prévision est échue; ceci était le dernier TAF qui a été émis
TAF AMD CYGK 280107Z 2801/2803 25005KT 3SM BR FEW002 BKN100 TEMPO
2801/2803 1/2SM FG VV002
RMK NXT FCST BY 281200Z=

OTTAWA/GATINEAU/QC    

LWIS CYND 280500Z AUTO 00000KT 17/17 A2961=
LWIS CYND 280400Z AUTO 31006KT 280V010 18/17 A2962=
LWIS CYND 280300Z AUTO 31005KT 19/18 A2960=

*** REMARK        : Forecast period has ended; this was the last TAF issued
*** REMARQUE : La période de prévision est échue; ceci était le dernier TAF qui a été émis
TAF CYND 271740Z 2718/2801 22008KT P6SM OVC012 TEMPO 2718/2720 5SM
-SHRA BR OVC008
FM272000 22010KT P6SM OVC025 TEMPO 2720/2801 P6SM -SHRA OVC015
PROB30 2720/2801 2SM TSRA BR BKN008 OVC020CB
RMK NXT FCST BY 281300Z

OTTAWA/MACDONALD-CARTIER INTL/ON    

METAR CYOW 280500Z 26006KT 250V320 15SM FEW004 BKN090 BKN110 18/17 A2964 RMK SC2AC3AC2 PRESRR SLP040 DENSITY ALT 1100FT=
SPECI CYOW 280434Z 31008KT 15SM FEW004 SCT017 BKN100 18/17 A2962 RMK SC2SC2AC3 SLP033 DENSITY ALT 1200FT=
SPECI CYOW 280423Z 31009KT 15SM BKN004 BKN015 18/17 A2962 RMK SF5SC2 SLP032 DENSITY ALT 1200FT=
SPECI CYOW 280417Z 30009KT 15SM SCT004 BKN018 18/17 A2962 RMK SF3SC4 SLP033 DENSITY ALT 1200FT=
METAR CYOW 280400Z 30009G15KT 15SM FEW007 BKN032 18/17 A2963 RMK SF3SC4 SLP034 DENSITY ALT 1200FT=
SPECI CYOW 280321Z 25009KT 15SM BKN009 BKN016 19/18 A2962 RMK SF6SC1 SLP033 DENSITY ALT 1300FT=
SPECI CYOW 280310Z 24009KT 15SM SCT009 BKN016 BKN060 18/18 A2962 RMK SF3SC3SC1 SLP033 DENSITY ALT 1300FT=
METAR CYOW 280300Z 22007KT 190V250 15SM SCT012 SCT035 BKN063 18/18 A2962 RMK SF3SC1SC3 SLP033 DENSITY ALT 1300FT=

TAF CYOW 280240Z 2803/2824 20005KT P6SM -RA SCT008 BKN030 TEMPO
2803/2811 4SM -SHRA BR BKN007 OVC015
BECMG 2805/2807 27010KT
FM281100 31010KT P6SM BKN030 TEMPO 2811/2814 BKN020
FM281800 32010KT P6SM BKN050
FM282200 32010KT P6SM SCT050
RMK NXT FCST BY 280600Z

MONTREAL INTL (MIRABEL)/QC    

METAR CYMX 280500Z 23004KT 180V280 15SM -RA SCT004 OVC020 18/18 A2958 RMK SF4SC4 SLP019 DENSITY ALT 1100FT=
SPECI CYMX 280434Z 22007KT 15SM -RA SCT006 OVC024 18/18 A2958 RMK SF3SC5 SLP021 DENSITY ALT 1100FT=
METAR CYMX 280400Z VRB02KT 10SM -SHRA OVC013 18/18 A2959 RMK SC8 CVCTV CLD EMBD SLP023 DENSITY ALT 1100FT=
METAR CYMX 280300Z VRB02KT 20SM -SHRA OVC100 18/17 A2960 RMK AC8 CVCTV CLD EMBD SLP026 DENSITY ALT 1100FT=

TAF AMD CYMX 280206Z 2802/2824 VRB03KT P6SM SCT007 BKN050 TEMPO
2802/2805 4SM -SHRA BR BKN007
FM280500 24006KT 6SM BR SCT007 OVC012 TEMPO 2805/2811 4SM -SHRA
BR BKN007 OVC012
FM281100 30010KT P6SM BKN030 TEMPO 2811/2814 P6SM -SHRA BKN020
FM281600 30012KT P6SM BKN040
FM282200 28010KT P6SM SCT070
RMK NXT FCST BY 280600Z=

MONTREAL/ST-HUBERT/QC    (show WxCam)

METAR CYHU 280500Z AUTO 25006KT 9SM RA BKN066 BKN077 OVC089 18/18 A2956 RMK PCPN 2.2MM PAST HR SLP013 DENSITY ALT 1000FT=
SPECI CYHU 280419Z AUTO 25008KT 9SM RA SCT008 SCT046 BKN081 OVC120 19/18 A2958 RMK PCPN 0.5MM PAST HR SLP020 DENSITY ALT 1000FT=
METAR CYHU 280400Z AUTO 24010KT 9SM -RA BKN005 BKN012 OVC017 19/18 A2958 RMK PCPN 3.0MM PAST HR SLP019 DENSITY ALT 1000FT=
SPECI CYHU 280349Z AUTO 24007KT 8SM -RA BKN005 BKN012 OVC017 19/19 A2958 RMK PCPN 2.5MM PAST HR SLP020 DENSITY ALT 1000FT=
SPECI CYHU 280348Z AUTO 24008KT 8SM -RA SCT005 BKN012 OVC017 19/19 A2958 RMK PCPN 2.5MM PAST HR SLP020 DENSITY ALT 1000FT=
SPECI CYHU 280337Z AUTO 23009KT 7SM -RA BKN005 BKN017 BKN028 OVC034 19/19 A2959 RMK PCPN 2.2MM PAST HR SLP022 DENSITY ALT 1000FT=
SPECI CYHU 280329Z AUTO 22007KT 6SM RA BR FEW005 BKN017 BKN029 OVC040 19/19 A2959 RMK PCPN 2.0MM PAST HR SLP022 DENSITY ALT 1000FT=
SPECI CYHU 280311Z AUTO 19007KT 6SM RA BR FEW007 SCT027 BKN036 OVC043 19/19 A2959 RMK PCPN 1.0MM PAST HR SLP021 DENSITY ALT 1000FT=
SPECI CYHU 280308Z AUTO 19007KT 4SM RA BR FEW005 SCT027 BKN038 OVC048 19/19 A2959 RMK PCPN 1.0MM PAST HR SLP022 DENSITY ALT 1000FT=
METAR CYHU 280300Z AUTO 18006KT 4SM +RA BR FEW004 SCT029 BKN036 OVC047 19/19 A2959 RMK PCPN 6.3MM PAST HR SLP022 DENSITY ALT 1000FT=

TAF AMD CYHU 280427Z 2804/2824 25007KT 6SM -SHRA BR SCT007 BKN030
TEMPO 2804/2816 3SM -SHRA BR BKN007 OVC015
FM281600 30010KT P6SM BKN040
FM282200 30010KT P6SM SCT050
RMK FCST BASED ON AUTO OBS. NXT FCST BY 280600Z=

MONTREAL/PIERRE-ELLIOTT-TRUDEAU INTL/QC    

METAR CYUL 280500Z 23008KT 15SM -RA FEW004 SCT008 BKN016 OVC030 18/18 A2958 RMK SF1SF3SC3SC2 SF TR SLP018 DENSITY ALT 1000FT=
METAR CYUL 280400Z 23006KT 15SM -RA FEW020 BKN045 BKN065 OVC085 19/18 A2959 RMK SC2SC4SC1AC1 SLP022 DENSITY ALT 1000FT=
SPECI CYUL 280312Z 22009KT 8SM -RA FEW003 SCT008 BKN025 OVC050 19/18 A2960 RMK SF1SF2SC3SC2 SLP026 DENSITY ALT 1000FT=
METAR CYUL 280300Z 25008KT 200V260 6SM -RA BR SCT004 BKN008 OVC020 19/19 A2960 RMK SF3SC3SC2 SLP025 DENSITY ALT 1000FT=

TAF AMD CYUL 280258Z 2803/2824 21010KT 6SM -SHRA BR SCT007 BKN040
TEMPO 2803/2814 3SM -SHRA BR BKN007 OVC015
FM281400 28010KT P6SM BKN040
FM282200 27010KT P6SM SCT050
RMK NXT FCST BY 280600Z=


Your time UTC time
Weather data provided by Environment Canada and NAV CANADA